Time;durP1;ratioP1;P1;durP2;ratioP2;P2;SDS_P1;SDS_P2;PMS_P1;PMS_P2;Temp;Humidity;BMP_temperature;BMP_pressure;BME280_temperature;BME280_humidity;BME280_pressure;Samples;Min_cycle;Max_cycle;Signal;HPM_P1;HPM_P2
2023/08/07 00:01:17;;;;;;;;;3.00;3.00;;;;;;;;5105427;27;47555;-76
2023/08/07 00:03:42;;;;;;;;;3.00;2.00;;;;;;;;5124031;27;45314;-76
2023/08/07 00:06:07;;;;;;;;;1.00;1.00;;;;;;;;5123941;27;45188;-77
2023/08/07 00:08:33;;;;;;;;;2.00;2.00;;;;;;;;5105195;27;45951;-77
2023/08/07 00:11:08;;;;;;;;;2.00;2.00;;;;;;;;5123596;27;45749;-77
2023/08/07 00:13:33;;;;;;;;;3.00;3.00;;;;;;;;5104839;27;45436;-76
2023/08/07 00:15:58;;;;;;;;;1.33;1.00;;;;;;;;5105286;27;45852;-77
2023/08/07 00:18:24;;;;;;;;;1.00;1.00;;;;;;;;5124444;27;45337;-76
2023/08/07 00:20:49;;;;;;;;;1.00;1.00;;;;;;;;5123508;27;45306;-77
2023/08/07 00:23:14;;;;;;;;;3.00;2.67;;;;;;;;5123928;27;45373;-77
2023/08/07 00:25:39;;;;;;;;;2.00;2.00;;;;;;;;5123780;27;45259;-77
2023/08/07 00:28:04;;;;;;;;;2.00;1.00;;;;;;;;5123270;27;45246;-76
2023/08/07 00:30:29;;;;;;;;;3.00;3.00;;;;;;;;5123452;27;47650;-77
2023/08/07 00:32:55;;;;;;;;;3.00;3.00;;;;;;;;5125559;27;45156;-77
2023/08/07 00:35:20;;;;;;;;;2.00;2.00;;;;;;;;5125696;27;45261;-76
2023/08/07 00:37:45;;;;;;;;;2.00;2.00;;;;;;;;5125430;27;47270;-77
2023/08/07 00:40:11;;;;;;;;;1.67;1.00;;;;;;;;5125396;27;47466;-77
2023/08/07 00:42:36;;;;;;;;;3.00;3.00;;;;;;;;5143792;27;45304;-77
2023/08/07 00:45:01;;;;;;;;;4.33;2.67;;;;;;;;5125520;27;45262;-78
2023/08/07 00:47:26;;;;;;;;;2.67;2.67;;;;;;;;5144175;27;45317;-77
2023/08/07 00:49:51;;;;;;;;;4.00;2.00;;;;;;;;5144021;27;46745;-77
2023/08/07 00:52:17;;;;;;;;;3.00;3.00;;;;;;;;5143839;27;45305;-77
2023/08/07 00:54:42;;;;;;;;;3.33;2.00;;;;;;;;5144149;27;45350;-76
2023/08/07 00:57:12;;;;;;;;;3.00;3.00;;;;;;;;5143244;27;45374;-77
2023/08/07 00:59:38;;;;;;;;;2.33;2.33;;;;;;;;5143152;27;46168;-78
2023/08/07 01:02:03;;;;;;;;;2.00;2.00;;;;;;;;5125060;27;45323;-77
2023/08/07 01:04:29;;;;;;;;;3.00;3.00;;;;;;;;5125049;27;45293;-78
2023/08/07 01:06:54;;;;;;;;;3.33;3.33;;;;;;;;5143755;27;45347;-76
2023/08/07 01:09:19;;;;;;;;;4.67;3.00;;;;;;;;5143637;27;45433;-77
2023/08/07 01:11:48;;;;;;;;;2.33;2.33;;;;;;;;5124812;27;45281;-76
2023/08/07 01:14:13;;;;;;;;;1.67;1.67;;;;;;;;5143682;27;45372;-77
2023/08/07 01:16:50;;;;;;;;;6.25;4.50;;;;;;;;5124682;27;45490;-77
2023/08/07 01:19:28;;;;;;;;;4.00;2.00;;;;;;;;5143478;27;46146;-77
2023/08/07 01:22:05;;;;;;;;;1.00;1.00;;;;;;;;5143372;27;45232;-77
2023/08/07 01:24:31;;;;;;;;;1.67;1.67;;;;;;;;5143485;27;45465;-77
2023/08/07 01:26:57;;;;;;;;;2.67;2.67;;;;;;;;5143113;27;45208;-78
2023/08/07 01:29:29;;;;;;;;;2.67;2.67;;;;;;;;5115129;27;48793;-76
2023/08/07 01:31:56;;;;;;;;;6.00;4.33;;;;;;;;5104043;27;45252;-77
2023/08/07 01:34:23;;;;;;;;;2.00;2.00;;;;;;;;5122591;27;45455;-77
2023/08/07 01:36:49;;;;;;;;;3.00;1.67;;;;;;;;5122140;27;45319;-77
2023/08/07 01:39:16;;;;;;;;;2.00;2.00;;;;;;;;5103789;27;46032;-76
2023/08/07 01:41:41;;;;;;;;;2.00;2.00;;;;;;;;5121913;27;45479;-77
2023/08/07 01:44:06;;;;;;;;;3.00;3.00;;;;;;;;5122559;27;45300;-77
2023/08/07 01:46:31;;;;;;;;;3.33;3.00;;;;;;;;5122430;27;45397;-76
2023/08/07 01:48:56;;;;;;;;;2.00;2.00;;;;;;;;5122294;27;46077;-76
2023/08/07 01:51:22;;;;;;;;;1.33;1.33;;;;;;;;5122061;27;45819;-76
2023/08/07 01:53:47;;;;;;;;;4.00;2.00;;;;;;;;5122344;27;45449;-77
2023/08/07 01:56:13;;;;;;;;;2.00;2.00;;;;;;;;5122168;27;45956;-76
2023/08/07 01:58:38;;;;;;;;;2.00;2.00;;;;;;;;5122029;27;45223;-76
2023/08/07 02:01:03;;;;;;;;;4.67;3.67;;;;;;;;5122019;27;45313;-77
2023/08/07 02:03:28;;;;;;;;;3.00;3.00;;;;;;;;5122277;27;45188;-77
2023/08/07 02:05:53;;;;;;;;;3.33;3.00;;;;;;;;5121899;27;45131;-76
2023/08/07 02:08:19;;;;;;;;;2.00;2.00;;;;;;;;5121923;27;46650;-77
2023/08/07 02:10:44;;;;;;;;;3.67;3.67;;;;;;;;5103123;27;45292;-77
2023/08/07 02:13:09;;;;;;;;;4.00;4.00;;;;;;;;5121913;27;45563;-77
2023/08/07 02:15:34;;;;;;;;;3.33;3.33;;;;;;;;5103318;27;45871;-76
2023/08/07 02:17:59;;;;;;;;;2.33;2.33;;;;;;;;5121742;27;45293;-77
2023/08/07 02:20:24;;;;;;;;;2.67;2.67;;;;;;;;5103206;27;46184;-76
2023/08/07 02:22:50;;;;;;;;;3.67;2.33;;;;;;;;5122017;27;45186;-76
2023/08/07 02:25:15;;;;;;;;;2.00;2.00;;;;;;;;5121598;27;45432;-76
2023/08/07 02:27:40;;;;;;;;;3.00;2.33;;;;;;;;5121417;27;45254;-77
2023/08/07 02:30:06;;;;;;;;;2.00;2.00;;;;;;;;5118412;27;45243;-77
2023/08/07 02:32:31;;;;;;;;;2.67;2.00;;;;;;;;5142502;27;45206;-76
2023/08/07 02:34:56;;;;;;;;;3.00;2.00;;;;;;;;5123668;27;47642;-78
2023/08/07 02:37:21;;;;;;;;;4.00;4.00;;;;;;;;5142130;27;45432;-76
2023/08/07 02:39:47;;;;;;;;;2.67;2.67;;;;;;;;5142356;27;45301;-76
2023/08/07 02:42:12;;;;;;;;;4.00;1.00;;;;;;;;5142194;27;45228;-76
2023/08/07 02:44:37;;;;;;;;;2.00;2.00;;;;;;;;5142074;27;45457;-78
2023/08/07 02:47:03;;;;;;;;;2.00;1.00;;;;;;;;5123320;27;48398;-77
2023/08/07 02:49:28;;;;;;;;;2.00;2.00;;;;;;;;5142478;27;45318;-77
2023/08/07 02:51:53;;;;;;;;;5.33;2.00;;;;;;;;5137930;27;45400;-76
2023/08/07 02:54:18;;;;;;;;;3.00;3.00;;;;;;;;5101502;27;45417;-77
2023/08/07 02:56:43;;;;;;;;;1.67;1.67;;;;;;;;5082283;27;47027;-76
2023/08/07 02:59:09;;;;;;;;;1.33;1.33;;;;;;;;5100773;27;45346;-77
2023/08/07 03:02:11;;;;;;;;;2.00;1.00;;;;;;;;5101030;27;45381;-77
2023/08/07 03:04:36;;;;;;;;;2.33;2.33;;;;;;;;5100601;27;45551;-77
2023/08/07 03:07:01;;;;;;;;;4.00;3.00;;;;;;;;5100310;27;45337;-78
2023/08/07 03:09:27;;;;;;;;;2.00;2.00;;;;;;;;5100607;27;45299;-77
2023/08/07 03:11:52;;;;;;;;;2.33;2.00;;;;;;;;5081912;27;45465;-77
2023/08/07 03:14:17;;;;;;;;;2.33;2.00;;;;;;;;5100464;27;45235;-77
2023/08/07 03:16:42;;;;;;;;;2.00;2.00;;;;;;;;5081844;27;47282;-77
2023/08/07 03:19:07;;;;;;;;;2.00;1.33;;;;;;;;5100393;27;45290;-77
2023/08/07 03:21:32;;;;;;;;;2.00;2.00;;;;;;;;5102225;27;45373;-76
2023/08/07 03:23:58;;;;;;;;;2.00;2.00;;;;;;;;5104171;27;45374;-77
2023/08/07 03:26:23;;;;;;;;;4.00;3.00;;;;;;;;5104435;27;45797;-76
2023/08/07 03:28:49;;;;;;;;;4.67;3.67;;;;;;;;5095342;27;46038;-77
2023/08/07 03:31:15;;;;;;;;;2.00;1.67;;;;;;;;5126731;27;45396;-77
2023/08/07 03:33:40;;;;;;;;;4.33;3.00;;;;;;;;5126678;27;45582;-77
2023/08/07 03:36:06;;;;;;;;;3.00;2.00;;;;;;;;5145357;27;45368;-76
2023/08/07 03:38:31;;;;;;;;;2.67;2.33;;;;;;;;5145334;27;45340;-77
2023/08/07 03:40:56;;;;;;;;;4.00;3.00;;;;;;;;5126412;27;45290;-76
2023/08/07 03:43:21;;;;;;;;;2.00;2.00;;;;;;;;5126719;27;46160;-76
2023/08/07 03:45:47;;;;;;;;;4.00;3.33;;;;;;;;5145621;27;45303;-76
2023/08/07 03:48:12;;;;;;;;;1.00;1.00;;;;;;;;5126417;27;45316;-76
2023/08/07 03:50:37;;;;;;;;;3.00;1.33;;;;;;;;5144977;27;45551;-77
2023/08/07 03:53:03;;;;;;;;;3.00;3.00;;;;;;;;5145177;27;45184;-77
2023/08/07 03:55:28;;;;;;;;;3.00;3.00;;;;;;;;5145181;27;45219;-76
2023/08/07 03:57:53;;;;;;;;;3.00;2.00;;;;;;;;5144778;27;45218;-77
2023/08/07 04:00:20;;;;;;;;;2.00;2.00;;;;;;;;5126401;27;45257;-77
2023/08/07 04:02:45;;;;;;;;;5.67;3.00;;;;;;;;5126087;27;47183;-77
2023/08/07 04:05:11;;;;;;;;;2.33;2.00;;;;;;;;5144730;27;45329;-77
2023/08/07 04:07:36;;;;;;;;;4.00;4.00;;;;;;;;5144446;27;45382;-77
2023/08/07 04:10:01;;;;;;;;;1.33;1.00;;;;;;;;5143102;27;45245;-78
2023/08/07 04:12:27;;;;;;;;;2.67;2.67;;;;;;;;5125238;27;45353;-76
2023/08/07 04:14:52;;;;;;;;;1.67;1.67;;;;;;;;5107114;27;46934;-76
2023/08/07 04:17:17;;;;;;;;;3.00;3.00;;;;;;;;5105772;27;45527;-77
2023/08/07 04:19:42;;;;;;;;;4.00;3.00;;;;;;;;5125405;27;45645;-76
2023/08/07 04:22:08;;;;;;;;;3.00;1.33;;;;;;;;5124310;27;45294;-76
2023/08/07 04:24:33;;;;;;;;;4.67;4.00;;;;;;;;5105530;27;47422;-76
2023/08/07 04:26:58;;;;;;;;;5.00;3.00;;;;;;;;5125027;27;45369;-76
2023/08/07 04:29:24;;;;;;;;;4.00;3.00;;;;;;;;5134262;27;45688;-76
2023/08/07 04:31:49;;;;;;;;;4.00;3.00;;;;;;;;5126141;27;46129;-77
2023/08/07 04:34:14;;;;;;;;;4.00;4.00;;;;;;;;5146029;27;45384;-77
2023/08/07 04:36:39;;;;;;;;;3.00;3.00;;;;;;;;5146355;27;45384;-76
2023/08/07 04:39:04;;;;;;;;;3.67;3.00;;;;;;;;5145545;27;45311;-76
2023/08/07 04:41:29;;;;;;;;;2.00;2.00;;;;;;;;5122548;27;47266;-76
2023/08/07 04:43:55;;;;;;;;;3.33;3.00;;;;;;;;5128098;27;45481;-77
2023/08/07 04:46:20;;;;;;;;;3.33;3.33;;;;;;;;5127365;27;45396;-76
2023/08/07 04:48:45;;;;;;;;;3.00;3.00;;;;;;;;5125493;27;45403;-76
2023/08/07 04:51:10;;;;;;;;;3.67;3.67;;;;;;;;5126333;27;46387;-77
2023/08/07 04:53:36;;;;;;;;;3.33;2.00;;;;;;;;5125744;27;46500;-76
2023/08/07 04:56:02;;;;;;;;;7.00;4.33;;;;;;;;5127413;27;45407;-76
2023/08/07 04:58:27;;;;;;;;;6.00;4.00;;;;;;;;5127067;27;45450;-76
2023/08/07 05:00:56;;;;;;;;;3.67;3.67;;;;;;;;5127816;27;45229;-76
2023/08/07 05:03:21;;;;;;;;;4.67;4.33;;;;;;;;5124341;27;47183;-76
2023/08/07 05:05:46;;;;;;;;;4.67;3.33;;;;;;;;5123649;27;45294;-76
2023/08/07 05:08:11;;;;;;;;;4.33;3.00;;;;;;;;5125465;27;45272;-76
2023/08/07 05:10:37;;;;;;;;;4.67;4.67;;;;;;;;5123436;27;47049;-76
2023/08/07 05:13:02;;;;;;;;;5.00;4.67;;;;;;;;5123763;27;47159;-76
2023/08/07 05:15:28;;;;;;;;;4.00;3.33;;;;;;;;5126527;27;45388;-76
2023/08/07 05:17:54;;;;;;;;;6.00;4.00;;;;;;;;5135928;27;45273;-75
2023/08/07 05:20:19;;;;;;;;;4.00;4.00;;;;;;;;5131551;27;45476;-75
2023/08/07 05:22:44;;;;;;;;;5.33;3.00;;;;;;;;5127645;27;47420;-74
2023/08/07 05:25:11;;;;;;;;;5.00;5.00;;;;;;;;5128105;27;45356;-75
2023/08/07 05:27:36;;;;;;;;;4.00;4.00;;;;;;;;5128532;27;45348;-75
2023/08/07 05:30:01;;;;;;;;;8.00;6.00;;;;;;;;5137865;27;45383;-76
2023/08/07 05:32:26;;;;;;;;;5.33;5.00;;;;;;;;5130943;27;47410;-75
2023/08/07 05:34:52;;;;;;;;;4.33;4.33;;;;;;;;5123838;27;45292;-75
2023/08/07 05:37:17;;;;;;;;;4.67;4.67;;;;;;;;5125518;27;45293;-74
2023/08/07 05:39:42;;;;;;;;;3.00;3.00;;;;;;;;5130586;27;45369;-77
2023/08/07 05:42:09;;;;;;;;;4.00;4.00;;;;;;;;5144493;27;46264;-76
2023/08/07 05:44:34;;;;;;;;;5.00;5.00;;;;;;;;5150376;27;45164;-75
2023/08/07 05:46:59;;;;;;;;;5.00;4.00;;;;;;;;5143124;27;45237;-75
2023/08/07 05:49:25;;;;;;;;;7.00;7.00;;;;;;;;5124382;27;46173;-75
2023/08/07 05:51:50;;;;;;;;;1.67;1.33;;;;;;;;5142581;27;45207;-75
2023/08/07 05:54:16;;;;;;;;;5.33;4.33;;;;;;;;5142998;27;45328;-76
2023/08/07 05:56:41;;;;;;;;;4.00;4.00;;;;;;;;5103390;27;45223;-75
2023/08/07 05:59:06;;;;;;;;;6.00;5.00;;;;;;;;5121893;27;45194;-76
2023/08/07 06:01:31;;;;;;;;;6.67;5.67;;;;;;;;5122072;27;45335;-75
2023/08/07 06:03:57;;;;;;;;;3.00;3.00;;;;;;;;5122076;27;45504;-75
2023/08/07 06:06:23;;;;;;;;;7.00;6.33;;;;;;;;5121980;27;45667;-75
2023/08/07 06:08:48;;;;;;;;;5.33;5.33;;;;;;;;5103301;27;46451;-75
2023/08/07 06:11:13;;;;;;;;;8.67;6.00;;;;;;;;5121573;27;45458;-75
2023/08/07 06:13:39;;;;;;;;;7.67;5.67;;;;;;;;5122025;27;45451;-76
2023/08/07 06:16:05;;;;;;;;;6.33;6.33;;;;;;;;5103376;27;45280;-76
2023/08/07 06:18:31;;;;;;;;;8.33;7.00;;;;;;;;5122061;27;45406;-75
2023/08/07 06:20:56;;;;;;;;;5.00;5.00;;;;;;;;5105673;27;47674;-79
2023/08/07 06:23:21;;;;;;;;;7.00;6.67;;;;;;;;5104198;27;45366;-78
2023/08/07 06:25:46;;;;;;;;;10.67;8.00;;;;;;;;5121652;27;45298;-79
2023/08/07 06:28:12;;;;;;;;;7.67;7.67;;;;;;;;5121658;27;45367;-78
2023/08/07 06:30:37;;;;;;;;;9.00;7.00;;;;;;;;5129223;27;47475;-78
2023/08/07 06:33:03;;;;;;;;;10.67;8.00;;;;;;;;5147482;27;45269;-76
2023/08/07 06:35:28;;;;;;;;;9.67;8.33;;;;;;;;5141174;27;45058;-78
2023/08/07 06:37:53;;;;;;;;;8.00;8.00;;;;;;;;5130345;27;45729;-76
2023/08/07 06:40:18;;;;;;;;;8.33;7.33;;;;;;;;5107211;27;47103;-77
2023/08/07 06:42:43;;;;;;;;;9.00;8.00;;;;;;;;5129411;27;45129;-74
2023/08/07 06:45:09;;;;;;;;;10.00;8.00;;;;;;;;5113452;27;45338;-77
2023/08/07 06:47:34;;;;;;;;;9.33;9.33;;;;;;;;5111413;27;47219;-77
2023/08/07 06:49:59;;;;;;;;;8.67;8.00;;;;;;;;5128773;27;45238;-77
2023/08/07 06:52:24;;;;;;;;;8.33;8.33;;;;;;;;5109323;27;45718;-77
2023/08/07 06:54:50;;;;;;;;;7.33;6.00;;;;;;;;5129524;27;44748;-76
2023/08/07 06:57:15;;;;;;;;;8.33;7.33;;;;;;;;5122985;27;45306;-76
2023/08/07 06:59:40;;;;;;;;;11.00;11.00;;;;;;;;5125044;27;45250;-76
2023/08/07 07:02:05;;;;;;;;;15.33;11.33;;;;;;;;5123544;27;45238;-77
2023/08/07 07:04:31;;;;;;;;;11.33;9.00;;;;;;;;5123208;27;45347;-77
2023/08/07 07:06:56;;;;;;;;;11.00;11.00;;;;;;;;5122081;27;45413;-75
2023/08/07 07:09:21;;;;;;;;;9.67;9.67;;;;;;;;5121181;27;45425;-75
2023/08/07 07:11:46;;;;;;;;;14.33;13.33;;;;;;;;5102435;27;45343;-76
2023/08/07 07:14:11;;;;;;;;;11.33;10.33;;;;;;;;5103088;27;45201;-77
2023/08/07 07:16:37;;;;;;;;;12.00;11.00;;;;;;;;5121045;27;45480;-78
2023/08/07 07:19:03;;;;;;;;;10.67;9.33;;;;;;;;5120710;27;47287;-77
2023/08/07 07:21:28;;;;;;;;;11.67;11.33;;;;;;;;5120829;27;45294;-77
2023/08/07 07:23:53;;;;;;;;;13.33;13.00;;;;;;;;5121190;27;45329;-77
2023/08/07 07:26:18;;;;;;;;;11.67;11.67;;;;;;;;5117162;27;45465;-78
2023/08/07 07:28:43;;;;;;;;;10.67;10.67;;;;;;;;5112956;27;45428;-76
2023/08/07 07:31:11;;;;;;;;;12.33;12.33;;;;;;;;5109184;27;45311;-78
2023/08/07 07:33:36;;;;;;;;;9.67;9.67;;;;;;;;5111309;27;45278;-81
2023/08/07 07:36:02;;;;;;;;;11.33;8.67;;;;;;;;5115847;27;45341;-78
2023/08/07 07:38:27;;;;;;;;;15.00;13.67;;;;;;;;5120428;27;45249;-77
2023/08/07 07:40:56;;;;;;;;;10.33;10.00;;;;;;;;5120352;27;45225;-78
2023/08/07 07:43:21;;;;;;;;;10.33;9.33;;;;;;;;5120989;27;45285;-75
2023/08/07 07:45:46;;;;;;;;;10.67;10.67;;;;;;;;5120310;27;45285;-76
2023/08/07 07:48:11;;;;;;;;;10.00;9.00;;;;;;;;5101971;27;47995;-77
2023/08/07 07:50:37;;;;;;;;;10.33;10.00;;;;;;;;5120476;27;45756;-76
2023/08/07 07:53:04;;;;;;;;;14.67;12.00;;;;;;;;5110256;27;45313;-75
2023/08/07 07:55:29;;;;;;;;;13.00;13.00;;;;;;;;5107986;27;45453;-77
2023/08/07 07:57:55;;;;;;;;;14.67;14.00;;;;;;;;5110870;27;46039;-79
2023/08/07 08:00:22;;;;;;;;;12.33;11.00;;;;;;;;5081360;27;45697;-78
2023/08/07 08:02:47;;;;;;;;;13.67;12.67;;;;;;;;5100568;27;45164;-76
2023/08/07 08:05:13;;;;;;;;;10.33;8.67;;;;;;;;5081771;27;45486;-78
2023/08/07 08:07:39;;;;;;;;;15.67;13.00;;;;;;;;5091059;27;45530;-77
2023/08/07 08:10:05;;;;;;;;;12.00;11.67;;;;;;;;5093656;27;45597;-80
2023/08/07 08:12:31;;;;;;;;;12.67;12.00;;;;;;;;5108459;27;45418;-79
2023/08/07 08:14:56;;;;;;;;;10.33;9.00;;;;;;;;5085846;27;46419;-78
2023/08/07 08:17:21;;;;;;;;;9.67;9.67;;;;;;;;5114140;27;46794;-76
2023/08/07 08:19:46;;;;;;;;;12.67;10.67;;;;;;;;5111863;27;45160;-75
2023/08/07 08:22:11;;;;;;;;;11.33;11.33;;;;;;;;5088624;27;45326;-76
2023/08/07 08:24:36;;;;;;;;;10.00;9.00;;;;;;;;5101716;27;45461;-75
2023/08/07 08:27:02;;;;;;;;;9.67;8.33;;;;;;;;5084154;27;46863;-76
2023/08/07 08:29:30;;;;;;;;;10.33;10.00;;;;;;;;5115936;27;45373;-77
2023/08/07 08:31:55;;;;;;;;;12.33;11.33;;;;;;;;5106345;27;45360;-76
2023/08/07 08:34:21;;;;;;;;;10.67;10.00;;;;;;;;5102498;27;45327;-75
2023/08/07 08:36:46;;;;;;;;;11.00;11.00;;;;;;;;5103779;27;45361;-76
2023/08/07 08:39:12;;;;;;;;;12.67;12.33;;;;;;;;5123099;27;45277;-77
2023/08/07 08:41:37;;;;;;;;;11.67;10.33;;;;;;;;5105866;27;45297;-75
2023/08/07 08:44:04;;;;;;;;;12.00;10.00;;;;;;;;5124427;27;45529;-77
2023/08/07 08:46:30;;;;;;;;;12.33;11.33;;;;;;;;5123452;27;45262;-75
2023/08/07 08:48:59;;;;;;;;;9.33;9.33;;;;;;;;5123896;27;45250;-74
2023/08/07 08:51:25;;;;;;;;;11.33;10.67;;;;;;;;5095502;27;45350;-78
2023/08/07 08:53:52;;;;;;;;;10.67;10.33;;;;;;;;5123375;27;45386;-75
2023/08/07 08:56:17;;;;;;;;;12.33;12.00;;;;;;;;5097138;27;47184;-75
2023/08/07 08:58:43;;;;;;;;;8.00;8.00;;;;;;;;5113274;27;45341;-74
2023/08/07 09:01:08;;;;;;;;;11.00;10.00;;;;;;;;5111107;27;45263;-78
2023/08/07 09:03:34;;;;;;;;;10.67;10.67;;;;;;;;5114373;27;45349;-78
2023/08/07 09:05:59;;;;;;;;;10.67;10.00;;;;;;;;5094434;27;47229;-76
2023/08/07 09:08:26;;;;;;;;;9.00;9.00;;;;;;;;5112890;27;45324;-77
2023/08/07 09:10:52;;;;;;;;;9.00;8.00;;;;;;;;5107427;27;45134;-75
2023/08/07 09:13:22;;;;;;;;;10.67;10.67;;;;;;;;5118246;27;45426;-76
2023/08/07 09:15:50;;;;;;;;;11.33;9.00;;;;;;;;5121995;27;45612;-78
2023/08/07 09:18:16;;;;;;;;;8.00;7.33;;;;;;;;5121568;27;45286;-76
2023/08/07 09:20:41;;;;;;;;;7.00;7.00;;;;;;;;5102847;27;45452;-76
2023/08/07 09:23:07;;;;;;;;;8.00;6.00;;;;;;;;5122017;27;45310;-75
2023/08/07 09:25:33;;;;;;;;;7.00;7.00;;;;;;;;5121814;27;46269;-75
2023/08/07 09:28:01;;;;;;;;;8.33;8.33;;;;;;;;5103725;27;45701;-75
2023/08/07 09:30:29;;;;;;;;;5.50;5.50;;;;;;;;5140677;27;45298;-75
2023/08/07 09:32:58;;;;;;;;;7.00;6.33;;;;;;;;5142862;27;45266;-76
2023/08/07 09:35:24;;;;;;;;;6.67;6.00;;;;;;;;5123824;27;47504;-75
2023/08/07 09:37:49;;;;;;;;;7.00;7.00;;;;;;;;5123806;27;45399;-76
2023/08/07 09:40:16;;;;;;;;;6.67;6.67;;;;;;;;5124261;27;45656;-75
2023/08/07 09:42:41;;;;;;;;;9.67;9.67;;;;;;;;5123929;27;47167;-77
2023/08/07 09:45:26;;;;;;;;;8.33;7.00;;;;;;;;5125394;27;45319;-74
2023/08/07 09:47:57;;;;;;;;;4.67;4.67;;;;;;;;5101090;27;45444;-76
2023/08/07 09:50:23;;;;;;;;;9.00;6.33;;;;;;;;5095093;27;45445;-77
2023/08/07 09:52:49;;;;;;;;;6.00;6.00;;;;;;;;5121902;27;45429;-79
2023/08/07 09:55:15;;;;;;;;;5.50;5.50;;;;;;;;5121535;27;45323;-77
2023/08/07 09:57:41;;;;;;;;;5.67;5.00;;;;;;;;5120962;27;45369;-77
2023/08/07 10:00:11;;;;;;;;;7.00;7.00;;;;;;;;5104369;27;45259;-78
2023/08/07 10:02:36;;;;;;;;;6.67;6.00;;;;;;;;5082340;27;45766;-76
2023/08/07 10:05:04;;;;;;;;;6.00;4.00;;;;;;;;5100391;27;46302;-75
2023/08/07 10:07:29;;;;;;;;;5.50;5.00;;;;;;;;5101275;27;45395;-76
2023/08/07 10:09:54;;;;;;;;;5.00;5.00;;;;;;;;5085510;27;45303;-78
2023/08/07 10:12:20;;;;;;;;;5.75;5.75;;;;;;;;5102189;27;45338;-78
2023/08/07 10:14:45;;;;;;;;;4.67;4.67;;;;;;;;5103496;27;45432;-79
2023/08/07 10:17:11;;;;;;;;;3.00;3.00;;;;;;;;5084293;27;46119;-81
2023/08/07 10:19:38;;;;;;;;;7.25;5.25;;;;;;;;5082538;27;45451;-79
2023/08/07 10:22:04;;;;;;;;;6.00;5.00;;;;;;;;5103994;27;45224;-79
2023/08/07 10:24:30;;;;;;;;;4.00;4.00;;;;;;;;5106025;27;45189;-78
2023/08/07 10:26:56;;;;;;;;;5.75;5.75;;;;;;;;5101377;27;45877;-78
2023/08/07 10:29:23;;;;;;;;;5.00;5.00;;;;;;;;5121150;27;45616;-78
2023/08/07 10:31:50;;;;;;;;;4.25;4.25;;;;;;;;5127663;27;46833;-78
2023/08/07 10:34:15;;;;;;;;;5.50;5.50;;;;;;;;5145709;27;45502;-79
2023/08/07 10:36:41;;;;;;;;;5.00;4.75;;;;;;;;5144807;27;45322;-78
2023/08/07 10:39:07;;;;;;;;;5.00;4.00;;;;;;;;5148153;27;45542;-80
2023/08/07 10:41:38;;;;;;;;;3.75;3.75;;;;;;;;5095087;27;46391;-79
2023/08/07 10:44:03;;;;;;;;;8.00;5.75;;;;;;;;5106916;27;46746;-77
2023/08/07 10:46:46;;;;;;;;;4.00;4.00;;;;;;;;5102814;27;45406;-78
2023/08/07 10:49:32;;;;;;;;;3.00;3.00;;;;;;;;5099809;27;45314;-76
2023/08/07 10:51:57;;;;;;;;;4.25;4.25;;;;;;;;5097221;27;46330;-76
2023/08/07 10:54:23;;;;;;;;;5.75;5.75;;;;;;;;5116976;27;46088;-77
2023/08/07 10:56:52;;;;;;;;;5.75;5.75;;;;;;;;5116488;27;45468;-77
2023/08/07 10:59:17;;;;;;;;;5.50;5.50;;;;;;;;5107201;27;45408;-78
2023/08/07 11:01:43;;;;;;;;;4.00;4.00;;;;;;;;5100930;27;45120;-80
2023/08/07 11:04:12;;;;;;;;;6.75;6.00;;;;;;;;5101709;27;48294;-79
2023/08/07 11:06:38;;;;;;;;;3.00;3.00;;;;;;;;5104760;27;46047;-80
2023/08/07 11:09:04;;;;;;;;;5.50;4.75;;;;;;;;5098799;27;45602;-78
2023/08/07 11:11:39;;;;;;;;;3.50;3.50;;;;;;;;5101847;27;48266;-79
2023/08/07 11:14:04;;;;;;;;;4.75;4.75;;;;;;;;5113484;27;46144;-79
2023/08/07 11:16:30;;;;;;;;;5.00;5.00;;;;;;;;5101234;27;46036;-78
2023/08/07 11:18:55;;;;;;;;;6.00;5.00;;;;;;;;5119089;27;45541;-78
2023/08/07 11:21:20;;;;;;;;;3.50;3.50;;;;;;;;5119641;27;45337;-77
2023/08/07 11:23:46;;;;;;;;;7.25;5.00;;;;;;;;5117316;27;46071;-75
2023/08/07 11:26:11;;;;;;;;;5.75;5.00;;;;;;;;5088940;27;45347;-75
2023/08/07 11:28:37;;;;;;;;;5.75;5.00;;;;;;;;5122457;27;45304;-74
2023/08/07 11:31:02;;;;;;;;;3.50;3.50;;;;;;;;5121473;27;45463;-74
2023/08/07 11:33:28;;;;;;;;;2.00;2.00;;;;;;;;5119693;27;45279;-75
2023/08/07 11:35:54;;;;;;;;;3.25;3.25;;;;;;;;5117832;27;45824;-74
2023/08/07 11:38:48;;;;;;;;;3.75;3.75;;;;;;;;5117644;27;45471;-74
2023/08/07 11:41:15;;;;;;;;;4.25;4.25;;;;;;;;5079101;27;47470;-75
2023/08/07 11:43:40;;;;;;;;;4.25;4.25;;;;;;;;5122485;27;46326;-75
2023/08/07 11:46:07;;;;;;;;;7.00;4.50;;;;;;;;5118214;27;45321;-75
2023/08/07 11:48:33;;;;;;;;;5.50;4.75;;;;;;;;5122454;27;45286;-75
2023/08/07 11:50:59;;;;;;;;;4.00;4.00;;;;;;;;5104478;27;46307;-75
2023/08/07 11:53:25;;;;;;;;;3.50;3.50;;;;;;;;5104718;27;47119;-75
2023/08/07 11:55:59;;;;;;;;;5.25;4.00;;;;;;;;5100117;27;45306;-75
2023/08/07 11:58:26;;;;;;;;;3.75;3.75;;;;;;;;5123499;27;45318;-75
2023/08/07 12:00:51;;;;;;;;;5.50;5.50;;;;;;;;5123215;27;45562;-74
2023/08/07 12:03:23;;;;;;;;;5.75;5.50;;;;;;;;5122949;27;45427;-74
2023/08/07 12:05:49;;;;;;;;;4.50;4.50;;;;;;;;5123698;27;45269;-74
2023/08/07 12:08:14;;;;;;;;;5.50;5.00;;;;;;;;5123115;27;45401;-75
2023/08/07 12:10:39;;;;;;;;;5.00;5.00;;;;;;;;5104794;27;46084;-74
2023/08/07 12:13:07;;;;;;;;;4.00;4.00;;;;;;;;5113113;27;45354;-75
2023/08/07 12:15:33;;;;;;;;;5.00;4.50;;;;;;;;5084116;27;45255;-75
2023/08/07 12:18:01;;;;;;;;;6.25;5.00;;;;;;;;5102570;27;45317;-76
2023/08/07 12:20:27;;;;;;;;;5.75;3.75;;;;;;;;5087560;27;46757;-75
2023/08/07 12:22:52;;;;;;;;;4.25;4.25;;;;;;;;5123246;27;46220;-77
2023/08/07 12:25:17;;;;;;;;;4.50;3.50;;;;;;;;5109063;27;45530;-76
2023/08/07 12:27:42;;;;;;;;;3.00;3.00;;;;;;;;5118617;27;45456;-75
2023/08/07 12:30:08;;;;;;;;;4.00;4.00;;;;;;;;5104887;27;45393;-76
2023/08/07 12:32:33;;;;;;;;;5.75;5.75;;;;;;;;5106207;27;46682;-78
2023/08/07 12:34:58;;;;;;;;;3.25;3.25;;;;;;;;5135474;27;45667;-78
2023/08/07 12:37:23;;;;;;;;;4.25;4.25;;;;;;;;5125811;27;45440;-77
2023/08/07 12:39:49;;;;;;;;;3.00;3.00;;;;;;;;5093851;27;46255;-77
2023/08/07 12:42:14;;;;;;;;;3.75;3.75;;;;;;;;5125683;27;45446;-76
2023/08/07 12:44:39;;;;;;;;;3.75;3.25;;;;;;;;5121667;27;45426;-77
2023/08/07 12:47:04;;;;;;;;;4.50;4.00;;;;;;;;5139303;27;45314;-77
2023/08/07 12:49:30;;;;;;;;;4.00;4.00;;;;;;;;5119744;27;45773;-76
2023/08/07 12:51:57;;;;;;;;;3.00;3.00;;;;;;;;5125605;27;45487;-77
2023/08/07 12:54:23;;;;;;;;;4.00;4.00;;;;;;;;5117518;27;45872;-78
2023/08/07 12:56:48;;;;;;;;;5.00;5.00;;;;;;;;5121756;27;45472;-76
2023/08/07 12:59:13;;;;;;;;;6.50;5.00;;;;;;;;5123583;27;46192;-77
2023/08/07 13:01:38;;;;;;;;;5.00;5.00;;;;;;;;5119669;27;46257;-73
2023/08/07 13:04:05;;;;;;;;;3.25;3.25;;;;;;;;5116099;27;45644;-78
2023/08/07 13:06:30;;;;;;;;;5.00;5.00;;;;;;;;5149794;27;45729;-74
2023/08/07 13:08:56;;;;;;;;;5.00;5.00;;;;;;;;5112346;27;46909;-75
2023/08/07 13:11:21;;;;;;;;;4.00;4.00;;;;;;;;5125470;27;46343;-75
2023/08/07 13:13:46;;;;;;;;;5.50;5.50;;;;;;;;5116725;27;45372;-75
2023/08/07 13:16:11;;;;;;;;;4.75;4.25;;;;;;;;5133126;27;45505;-75
2023/08/07 13:18:37;;;;;;;;;3.75;3.75;;;;;;;;5131765;27;45457;-74
2023/08/07 13:21:02;;;;;;;;;4.75;4.50;;;;;;;;5104994;27;47397;-75
2023/08/07 13:23:27;;;;;;;;;4.25;4.25;;;;;;;;5124980;27;45336;-74
2023/08/07 13:25:52;;;;;;;;;5.00;5.00;;;;;;;;5109116;27;45550;-74
2023/08/07 13:28:18;;;;;;;;;4.00;4.00;;;;;;;;5129690;27;45433;-75
2023/08/07 13:30:43;;;;;;;;;5.75;5.75;;;;;;;;5116053;27;47091;-76
2023/08/07 13:33:08;;;;;;;;;7.00;6.00;;;;;;;;5125638;27;45411;-76
2023/08/07 13:35:33;;;;;;;;;6.25;6.25;;;;;;;;5119974;27;45330;-76
2023/08/07 13:37:59;;;;;;;;;5.50;5.25;;;;;;;;5137719;27;45744;-76
2023/08/07 13:40:24;;;;;;;;;6.00;6.00;;;;;;;;5106009;27;48293;-77
2023/08/07 13:42:49;;;;;;;;;4.75;4.75;;;;;;;;5118840;27;45850;-77
2023/08/07 13:45:14;;;;;;;;;6.00;6.00;;;;;;;;5127488;27;45535;-76
2023/08/07 13:47:40;;;;;;;;;4.25;4.25;;;;;;;;5123143;27;46106;-75
2023/08/07 13:50:07;;;;;;;;;3.00;3.00;;;;;;;;5136499;27;45448;-75
2023/08/07 13:52:32;;;;;;;;;4.75;4.75;;;;;;;;5135979;27;45450;-74
2023/08/07 13:54:57;;;;;;;;;5.00;3.25;;;;;;;;5127411;27;45360;-75
2023/08/07 13:57:22;;;;;;;;;5.00;5.00;;;;;;;;5121093;27;45304;-75
2023/08/07 13:59:48;;;;;;;;;3.50;3.50;;;;;;;;5133729;27;45267;-79
2023/08/07 14:02:13;;;;;;;;;6.33;6.33;;;;;;;;5120812;27;45499;-79
2023/08/07 14:04:38;;;;;;;;;4.50;4.50;;;;;;;;5106087;27;45266;-82
2023/08/07 14:07:04;;;;;;;;;7.00;5.25;;;;;;;;5135277;27;45208;-80
2023/08/07 14:09:29;;;;;;;;;6.25;6.25;;;;;;;;5089187;27;47614;-78
2023/08/07 14:11:55;;;;;;;;;4.25;4.25;;;;;;;;5128027;27;45238;-76
2023/08/07 14:14:20;;;;;;;;;6.00;6.00;;;;;;;;5124394;27;45298;-78
2023/08/07 14:16:46;;;;;;;;;4.25;4.25;;;;;;;;5116599;27;45636;-76
2023/08/07 14:19:11;;;;;;;;;4.00;4.00;;;;;;;;5093002;27;47670;-75
2023/08/07 14:21:36;;;;;;;;;4.00;4.00;;;;;;;;5112470;27;45278;-77
2023/08/07 14:24:01;;;;;;;;;6.00;6.00;;;;;;;;5110276;27;45456;-75
2023/08/07 14:26:27;;;;;;;;;3.00;3.00;;;;;;;;5093663;27;45927;-74
2023/08/07 14:28:52;;;;;;;;;5.00;5.00;;;;;;;;5114533;27;45227;-74
2023/08/07 14:31:17;;;;;;;;;6.00;6.00;;;;;;;;5109244;27;45326;-74
2023/08/07 14:33:42;;;;;;;;;4.00;4.00;;;;;;;;5110310;27;46496;-74